sensor_id;sensor_type;location;lat;lon;timestamp;P1;durP1;ratioP1;P2;durP2;ratioP2
43154;SDS011;34212;51.018;13.586;2023-03-30T00:04:30;2.85;;;2.33;;
43154;SDS011;34212;51.018;13.586;2023-03-30T00:09:35;6.07;;;2.70;;
43154;SDS011;34212;51.018;13.586;2023-03-30T00:14:42;4.05;;;2.42;;
43154;SDS011;34212;51.018;13.586;2023-03-30T00:19:43;5.07;;;2.30;;
43154;SDS011;34212;51.018;13.586;2023-03-30T00:24:46;6.10;;;2.23;;
43154;SDS011;34212;51.018;13.586;2023-03-30T00:29:47;5.10;;;2.47;;
43154;SDS011;34212;51.018;13.586;2023-03-30T00:34:48;3.88;;;1.92;;
43154;SDS011;34212;51.018;13.586;2023-03-30T00:39:50;5.28;;;2.17;;
43154;SDS011;34212;51.018;13.586;2023-03-30T00:50:06;3.50;;;1.77;;
43154;SDS011;34212;51.018;13.586;2023-03-30T00:55:08;3.80;;;1.90;;
43154;SDS011;34212;51.018;13.586;2023-03-30T01:00:11;3.70;;;2.50;;
43154;SDS011;34212;51.018;13.586;2023-03-30T01:05:14;4.22;;;2.28;;
43154;SDS011;34212;51.018;13.586;2023-03-30T01:10:16;4.00;;;2.20;;
43154;SDS011;34212;51.018;13.586;2023-03-30T01:15:19;3.47;;;2.25;;
43154;SDS011;34212;51.018;13.586;2023-03-30T01:20:39;3.85;;;2.20;;
43154;SDS011;34212;51.018;13.586;2023-03-30T01:26:14;3.97;;;2.45;;
43154;SDS011;34212;51.018;13.586;2023-03-30T01:37:06;5.25;;;2.70;;
43154;SDS011;34212;51.018;13.586;2023-03-30T01:47:37;4.35;;;2.78;;
43154;SDS011;34212;51.018;13.586;2023-03-30T01:52:50;6.22;;;2.67;;
43154;SDS011;34212;51.018;13.586;2023-03-30T01:58:07;4.63;;;2.47;;
43154;SDS011;34212;51.018;13.586;2023-03-30T02:03:17;6.80;;;3.50;;
43154;SDS011;34212;51.018;13.586;2023-03-30T02:08:23;5.25;;;2.00;;
43154;SDS011;34212;51.018;13.586;2023-03-30T02:13:29;5.22;;;2.42;;
43154;SDS011;34212;51.018;13.586;2023-03-30T02:18:32;5.13;;;2.28;;
43154;SDS011;34212;51.018;13.586;2023-03-30T02:23:34;3.30;;;2.00;;
43154;SDS011;34212;51.018;13.586;2023-03-30T02:28:39;3.55;;;2.22;;
43154;SDS011;34212;51.018;13.586;2023-03-30T02:33:50;4.18;;;2.40;;
43154;SDS011;34212;51.018;13.586;2023-03-30T03:00:27;4.15;;;2.15;;
43154;SDS011;34212;51.018;13.586;2023-03-30T03:05:37;3.50;;;1.98;;
43154;SDS011;34212;51.018;13.586;2023-03-30T03:10:44;4.97;;;3.38;;
43154;SDS011;34212;51.018;13.586;2023-03-30T03:15:47;6.15;;;4.40;;
43154;SDS011;34212;51.018;13.586;2023-03-30T03:20:50;8.30;;;4.80;;
43154;SDS011;34212;51.018;13.586;2023-03-30T03:25:53;7.53;;;5.20;;
43154;SDS011;34212;51.018;13.586;2023-03-30T03:30:56;9.10;;;5.50;;
43154;SDS011;34212;51.018;13.586;2023-03-30T03:35:59;9.50;;;5.65;;
43154;SDS011;34212;51.018;13.586;2023-03-30T03:41:04;10.50;;;6.00;;
43154;SDS011;34212;51.018;13.586;2023-03-30T03:46:07;10.63;;;7.00;;
43154;SDS011;34212;51.018;13.586;2023-03-30T03:51:08;10.85;;;7.90;;
43154;SDS011;34212;51.018;13.586;2023-03-30T03:56:11;14.20;;;7.60;;
43154;SDS011;34212;51.018;13.586;2023-03-30T04:01:14;11.68;;;7.57;;
43154;SDS011;34212;51.018;13.586;2023-03-30T04:06:15;10.73;;;7.55;;
43154;SDS011;34212;51.018;13.586;2023-03-30T04:11:17;9.77;;;6.68;;
43154;SDS011;34212;51.018;13.586;2023-03-30T04:16:33;12.43;;;8.40;;
43154;SDS011;34212;51.018;13.586;2023-03-30T04:22:01;11.75;;;7.10;;
43154;SDS011;34212;51.018;13.586;2023-03-30T04:27:11;11.82;;;7.55;;
43154;SDS011;34212;51.018;13.586;2023-03-30T04:32:37;12.23;;;7.05;;
43154;SDS011;34212;51.018;13.586;2023-03-30T04:38:06;5.18;;;1.90;;
43154;SDS011;34212;51.018;13.586;2023-03-30T04:43:37;4.35;;;2.40;;
43154;SDS011;34212;51.018;13.586;2023-03-30T04:48:58;8.65;;;2.45;;
43154;SDS011;34212;51.018;13.586;2023-03-30T04:54:18;7.93;;;1.83;;
43154;SDS011;34212;51.018;13.586;2023-03-30T04:59:48;4.05;;;1.70;;
43154;SDS011;34212;51.018;13.586;2023-03-30T05:05:25;7.75;;;1.80;;
43154;SDS011;34212;51.018;13.586;2023-03-30T05:11:02;4.57;;;1.90;;
43154;SDS011;34212;51.018;13.586;2023-03-30T05:16:17;3.85;;;2.33;;
43154;SDS011;34212;51.018;13.586;2023-03-30T05:21:42;6.22;;;2.15;;
43154;SDS011;34212;51.018;13.586;2023-03-30T05:27:02;12.55;;;2.17;;
43154;SDS011;34212;51.018;13.586;2023-03-30T05:32:25;9.77;;;2.65;;
43154;SDS011;34212;51.018;13.586;2023-03-30T05:37:48;7.00;;;2.90;;
43154;SDS011;34212;51.018;13.586;2023-03-30T05:43:15;6.50;;;1.88;;
43154;SDS011;34212;51.018;13.586;2023-03-30T05:48:28;6.47;;;1.67;;
43154;SDS011;34212;51.018;13.586;2023-03-30T05:53:41;8.13;;;2.03;;
43154;SDS011;34212;51.018;13.586;2023-03-30T05:59:03;6.75;;;1.90;;
43154;SDS011;34212;51.018;13.586;2023-03-30T06:04:27;7.88;;;2.58;;
43154;SDS011;34212;51.018;13.586;2023-03-30T06:09:29;13.55;;;2.30;;
43154;SDS011;34212;51.018;13.586;2023-03-30T06:14:36;4.78;;;1.80;;
43154;SDS011;34212;51.018;13.586;2023-03-30T06:20:13;6.22;;;2.15;;
43154;SDS011;34212;51.018;13.586;2023-03-30T06:25:19;9.50;;;1.80;;
43154;SDS011;34212;51.018;13.586;2023-03-30T06:30:21;4.95;;;2.00;;
43154;SDS011;34212;51.018;13.586;2023-03-30T06:35:26;8.27;;;2.17;;
43154;SDS011;34212;51.018;13.586;2023-03-30T06:40:32;6.35;;;2.00;;
43154;SDS011;34212;51.018;13.586;2023-03-30T06:45:34;3.53;;;2.45;;
43154;SDS011;34212;51.018;13.586;2023-03-30T06:50:36;7.23;;;2.87;;
43154;SDS011;34212;51.018;13.586;2023-03-30T06:55:49;5.38;;;1.88;;
43154;SDS011;34212;51.018;13.586;2023-03-30T07:00:53;8.30;;;2.17;;
43154;SDS011;34212;51.018;13.586;2023-03-30T07:06:14;11.48;;;2.30;;
43154;SDS011;34212;51.018;13.586;2023-03-30T07:11:17;6.43;;;2.20;;
43154;SDS011;34212;51.018;13.586;2023-03-30T07:16:19;9.23;;;2.33;;
43154;SDS011;34212;51.018;13.586;2023-03-30T07:21:21;8.60;;;2.42;;
43154;SDS011;34212;51.018;13.586;2023-03-30T07:26:23;10.52;;;2.20;;
43154;SDS011;34212;51.018;13.586;2023-03-30T07:31:32;5.03;;;1.83;;
43154;SDS011;34212;51.018;13.586;2023-03-30T07:36:36;8.75;;;2.75;;
43154;SDS011;34212;51.018;13.586;2023-03-30T07:41:38;7.47;;;2.47;;
43154;SDS011;34212;51.018;13.586;2023-03-30T07:46:40;6.85;;;2.35;;
43154;SDS011;34212;51.018;13.586;2023-03-30T07:51:47;14.77;;;2.33;;
43154;SDS011;34212;51.018;13.586;2023-03-30T07:56:57;8.13;;;2.58;;
43154;SDS011;34212;51.018;13.586;2023-03-30T08:01:58;7.20;;;2.37;;
43154;SDS011;34212;51.018;13.586;2023-03-30T08:07:21;5.30;;;2.10;;
43154;SDS011;34212;51.018;13.586;2023-03-30T08:12:30;6.75;;;2.30;;
43154;SDS011;34212;51.018;13.586;2023-03-30T08:22:34;8.23;;;2.20;;
43154;SDS011;34212;51.018;13.586;2023-03-30T08:27:36;7.57;;;2.25;;
43154;SDS011;34212;51.018;13.586;2023-03-30T08:32:37;7.30;;;2.30;;
43154;SDS011;34212;51.018;13.586;2023-03-30T08:37:39;7.35;;;2.50;;
43154;SDS011;34212;51.018;13.586;2023-03-30T08:47:55;8.32;;;2.45;;
43154;SDS011;34212;51.018;13.586;2023-03-30T08:52:57;5.33;;;2.73;;
43154;SDS011;34212;51.018;13.586;2023-03-30T08:58:20;6.97;;;2.47;;
43154;SDS011;34212;51.018;13.586;2023-03-30T09:08:41;7.15;;;2.28;;
43154;SDS011;34212;51.018;13.586;2023-03-30T09:13:43;8.73;;;2.43;;
43154;SDS011;34212;51.018;13.586;2023-03-30T09:18:47;7.75;;;2.40;;
43154;SDS011;34212;51.018;13.586;2023-03-30T09:23:54;10.32;;;2.95;;
43154;SDS011;34212;51.018;13.586;2023-03-30T09:29:00;5.38;;;2.45;;
43154;SDS011;34212;51.018;13.586;2023-03-30T09:34:24;6.60;;;2.97;;
43154;SDS011;34212;51.018;13.586;2023-03-30T09:39:30;11.63;;;3.42;;
43154;SDS011;34212;51.018;13.586;2023-03-30T09:44:35;8.63;;;3.13;;
43154;SDS011;34212;51.018;13.586;2023-03-30T09:49:41;11.88;;;3.72;;
43154;SDS011;34212;51.018;13.586;2023-03-30T09:54:43;5.93;;;3.33;;
43154;SDS011;34212;51.018;13.586;2023-03-30T09:59:44;12.93;;;5.07;;
43154;SDS011;34212;51.018;13.586;2023-03-30T10:09:54;9.10;;;3.42;;
43154;SDS011;34212;51.018;13.586;2023-03-30T10:15:00;8.02;;;3.65;;
43154;SDS011;34212;51.018;13.586;2023-03-30T10:25:27;4.80;;;2.40;;
43154;SDS011;34212;51.018;13.586;2023-03-30T10:30:31;8.27;;;2.72;;
43154;SDS011;34212;51.018;13.586;2023-03-30T10:35:34;4.03;;;2.33;;
43154;SDS011;34212;51.018;13.586;2023-03-30T10:40:38;4.95;;;3.03;;
43154;SDS011;34212;51.018;13.586;2023-03-30T10:45:52;5.90;;;1.63;;
43154;SDS011;34212;51.018;13.586;2023-03-30T11:01:26;4.85;;;1.70;;
43154;SDS011;34212;51.018;13.586;2023-03-30T11:06:46;4.30;;;1.80;;
43154;SDS011;34212;51.018;13.586;2023-03-30T11:11:51;4.38;;;1.63;;
43154;SDS011;34212;51.018;13.586;2023-03-30T11:17:00;6.00;;;1.85;;
43154;SDS011;34212;51.018;13.586;2023-03-30T11:22:13;5.38;;;1.50;;
43154;SDS011;34212;51.018;13.586;2023-03-30T11:27:27;3.42;;;1.60;;
43154;SDS011;34212;51.018;13.586;2023-03-30T11:32:39;2.75;;;1.50;;
43154;SDS011;34212;51.018;13.586;2023-03-30T11:43:11;7.88;;;1.73;;
43154;SDS011;34212;51.018;13.586;2023-03-30T12:04:36;3.40;;;2.22;;
43154;SDS011;34212;51.018;13.586;2023-03-30T12:09:47;3.90;;;2.50;;
43154;SDS011;34212;51.018;13.586;2023-03-30T12:15:18;3.55;;;2.38;;
43154;SDS011;34212;51.018;13.586;2023-03-30T12:20:45;3.47;;;2.78;;
43154;SDS011;34212;51.018;13.586;2023-03-30T12:26:10;5.15;;;2.50;;
43154;SDS011;34212;51.018;13.586;2023-03-30T12:37:05;5.82;;;2.70;;
43154;SDS011;34212;51.018;13.586;2023-03-30T12:42:43;4.40;;;2.83;;
43154;SDS011;34212;51.018;13.586;2023-03-30T13:04:18;5.97;;;2.85;;
43154;SDS011;34212;51.018;13.586;2023-03-30T13:24:35;6.45;;;2.83;;
43154;SDS011;34212;51.018;13.586;2023-03-30T13:29:41;5.15;;;2.72;;
43154;SDS011;34212;51.018;13.586;2023-03-30T13:40:15;4.43;;;2.85;;
43154;SDS011;34212;51.018;13.586;2023-03-30T13:50:56;4.70;;;2.70;;
43154;SDS011;34212;51.018;13.586;2023-03-30T13:55:59;8.05;;;2.15;;
43154;SDS011;34212;51.018;13.586;2023-03-30T14:06:21;8.90;;;2.72;;
43154;SDS011;34212;51.018;13.586;2023-03-30T14:11:30;4.75;;;2.30;;
43154;SDS011;34212;51.018;13.586;2023-03-30T14:16:35;7.13;;;2.38;;
43154;SDS011;34212;51.018;13.586;2023-03-30T14:21:41;3.15;;;1.88;;
43154;SDS011;34212;51.018;13.586;2023-03-30T14:26:45;4.78;;;2.10;;
43154;SDS011;34212;51.018;13.586;2023-03-30T14:31:49;4.75;;;2.00;;
43154;SDS011;34212;51.018;13.586;2023-03-30T14:37:11;4.32;;;2.53;;
43154;SDS011;34212;51.018;13.586;2023-03-30T14:42:17;6.00;;;2.10;;
43154;SDS011;34212;51.018;13.586;2023-03-30T14:47:21;7.00;;;2.05;;
43154;SDS011;34212;51.018;13.586;2023-03-30T14:52:32;5.25;;;1.80;;
43154;SDS011;34212;51.018;13.586;2023-03-30T14:57:46;3.45;;;1.92;;
43154;SDS011;34212;51.018;13.586;2023-03-30T15:02:52;6.60;;;2.13;;
43154;SDS011;34212;51.018;13.586;2023-03-30T15:07:57;4.75;;;2.40;;
43154;SDS011;34212;51.018;13.586;2023-03-30T15:12:58;4.20;;;1.87;;
43154;SDS011;34212;51.018;13.586;2023-03-30T15:18:02;7.10;;;2.30;;
43154;SDS011;34212;51.018;13.586;2023-03-30T15:23:05;5.05;;;2.13;;
43154;SDS011;34212;51.018;13.586;2023-03-30T15:28:08;6.20;;;2.20;;
43154;SDS011;34212;51.018;13.586;2023-03-30T15:33:28;6.07;;;2.83;;
43154;SDS011;34212;51.018;13.586;2023-03-30T15:38:34;4.43;;;1.98;;
43154;SDS011;34212;51.018;13.586;2023-03-30T15:49:12;3.72;;;1.00;;
43154;SDS011;34212;51.018;13.586;2023-03-30T15:54:18;21.95;;;3.40;;
43154;SDS011;34212;51.018;13.586;2023-03-30T15:59:28;11.23;;;2.95;;
43154;SDS011;34212;51.018;13.586;2023-03-30T16:04:32;6.85;;;2.00;;
43154;SDS011;34212;51.018;13.586;2023-03-30T16:09:34;3.53;;;1.37;;
43154;SDS011;34212;51.018;13.586;2023-03-30T16:14:36;3.25;;;1.20;;
43154;SDS011;34212;51.018;13.586;2023-03-30T16:19:38;3.80;;;1.25;;
43154;SDS011;34212;51.018;13.586;2023-03-30T16:24:41;2.78;;;1.42;;
43154;SDS011;34212;51.018;13.586;2023-03-30T16:29:43;3.97;;;0.90;;
43154;SDS011;34212;51.018;13.586;2023-03-30T16:34:44;2.70;;;0.90;;
43154;SDS011;34212;51.018;13.586;2023-03-30T16:39:46;0.95;;;0.70;;
43154;SDS011;34212;51.018;13.586;2023-03-30T16:44:48;2.20;;;0.80;;
43154;SDS011;34212;51.018;13.586;2023-03-30T16:49:49;2.08;;;0.80;;
43154;SDS011;34212;51.018;13.586;2023-03-30T16:54:51;1.70;;;0.70;;
43154;SDS011;34212;51.018;13.586;2023-03-30T16:59:53;1.33;;;0.85;;
43154;SDS011;34212;51.018;13.586;2023-03-30T17:04:54;3.67;;;1.05;;
43154;SDS011;34212;51.018;13.586;2023-03-30T17:09:56;2.20;;;0.70;;
43154;SDS011;34212;51.018;13.586;2023-03-30T17:14:58;1.45;;;0.90;;
43154;SDS011;34212;51.018;13.586;2023-03-30T17:20:00;1.67;;;0.95;;
43154;SDS011;34212;51.018;13.586;2023-03-30T17:25:14;2.85;;;1.10;;
43154;SDS011;34212;51.018;13.586;2023-03-30T17:30:27;3.78;;;1.05;;
43154;SDS011;34212;51.018;13.586;2023-03-30T17:35:30;3.42;;;0.90;;
43154;SDS011;34212;51.018;13.586;2023-03-30T17:40:32;1.85;;;1.20;;
43154;SDS011;34212;51.018;13.586;2023-03-30T17:45:34;3.60;;;0.85;;
43154;SDS011;34212;51.018;13.586;2023-03-30T17:50:36;1.90;;;1.00;;
43154;SDS011;34212;51.018;13.586;2023-03-30T17:55:39;5.00;;;1.13;;
43154;SDS011;34212;51.018;13.586;2023-03-30T18:00:41;2.95;;;1.10;;
43154;SDS011;34212;51.018;13.586;2023-03-30T18:05:43;2.58;;;1.10;;
43154;SDS011;34212;51.018;13.586;2023-03-30T18:10:45;3.28;;;1.38;;
43154;SDS011;34212;51.018;13.586;2023-03-30T18:15:49;1.63;;;1.20;;
43154;SDS011;34212;51.018;13.586;2023-03-30T18:20:58;6.25;;;1.52;;
43154;SDS011;34212;51.018;13.586;2023-03-30T18:26:05;2.22;;;1.17;;
43154;SDS011;34212;51.018;13.586;2023-03-30T18:31:11;2.35;;;1.10;;
43154;SDS011;34212;51.018;13.586;2023-03-30T18:36:13;3.05;;;1.00;;
43154;SDS011;34212;51.018;13.586;2023-03-30T18:41:15;4.10;;;1.20;;
43154;SDS011;34212;51.018;13.586;2023-03-30T18:46:16;3.78;;;1.30;;
43154;SDS011;34212;51.018;13.586;2023-03-30T18:51:18;2.80;;;1.25;;
43154;SDS011;34212;51.018;13.586;2023-03-30T18:56:21;1.95;;;1.23;;
43154;SDS011;34212;51.018;13.586;2023-03-30T19:01:22;3.63;;;1.60;;
43154;SDS011;34212;51.018;13.586;2023-03-30T19:06:24;2.55;;;1.38;;
43154;SDS011;34212;51.018;13.586;2023-03-30T19:11:26;3.08;;;1.50;;
43154;SDS011;34212;51.018;13.586;2023-03-30T19:16:27;1.92;;;1.10;;
43154;SDS011;34212;51.018;13.586;2023-03-30T19:21:29;4.50;;;1.40;;
43154;SDS011;34212;51.018;13.586;2023-03-30T19:26:30;2.72;;;1.30;;
43154;SDS011;34212;51.018;13.586;2023-03-30T19:31:33;3.33;;;1.20;;
43154;SDS011;34212;51.018;13.586;2023-03-30T19:36:36;3.35;;;1.25;;
43154;SDS011;34212;51.018;13.586;2023-03-30T19:41:37;3.33;;;1.33;;
43154;SDS011;34212;51.018;13.586;2023-03-30T19:46:39;4.00;;;1.48;;
43154;SDS011;34212;51.018;13.586;2023-03-30T19:51:40;3.47;;;1.20;;
43154;SDS011;34212;51.018;13.586;2023-03-30T19:56:42;2.45;;;1.40;;
43154;SDS011;34212;51.018;13.586;2023-03-30T20:01:43;2.67;;;1.10;;
43154;SDS011;34212;51.018;13.586;2023-03-30T20:06:45;3.42;;;1.52;;
43154;SDS011;34212;51.018;13.586;2023-03-30T20:11:46;2.35;;;1.40;;
43154;SDS011;34212;51.018;13.586;2023-03-30T20:16:48;3.88;;;1.45;;
43154;SDS011;34212;51.018;13.586;2023-03-30T20:21:51;2.25;;;1.35;;
43154;SDS011;34212;51.018;13.586;2023-03-30T20:26:52;4.75;;;1.90;;
43154;SDS011;34212;51.018;13.586;2023-03-30T20:31:54;2.42;;;1.30;;
43154;SDS011;34212;51.018;13.586;2023-03-30T20:36:55;2.15;;;1.35;;
43154;SDS011;34212;51.018;13.586;2023-03-30T20:41:57;3.42;;;1.40;;
43154;SDS011;34212;51.018;13.586;2023-03-30T20:46:58;3.67;;;1.10;;
43154;SDS011;34212;51.018;13.586;2023-03-30T20:52:00;3.08;;;1.20;;
43154;SDS011;34212;51.018;13.586;2023-03-30T20:57:02;4.03;;;1.42;;
43154;SDS011;34212;51.018;13.586;2023-03-30T21:02:04;3.33;;;1.20;;
43154;SDS011;34212;51.018;13.586;2023-03-30T21:07:05;3.28;;;1.30;;
43154;SDS011;34212;51.018;13.586;2023-03-30T21:12:10;6.95;;;1.33;;
43154;SDS011;34212;51.018;13.586;2023-03-30T21:17:11;2.72;;;1.20;;
43154;SDS011;34212;51.018;13.586;2023-03-30T21:22:13;4.97;;;1.38;;
43154;SDS011;34212;51.018;13.586;2023-03-30T21:27:24;3.40;;;1.35;;
43154;SDS011;34212;51.018;13.586;2023-03-30T21:32:33;4.28;;;1.50;;
43154;SDS011;34212;51.018;13.586;2023-03-30T21:37:35;4.82;;;1.60;;
43154;SDS011;34212;51.018;13.586;2023-03-30T21:42:36;3.03;;;1.55;;
43154;SDS011;34212;51.018;13.586;2023-03-30T21:47:38;6.53;;;1.67;;
43154;SDS011;34212;51.018;13.586;2023-03-30T21:52:40;5.43;;;1.80;;
43154;SDS011;34212;51.018;13.586;2023-03-30T21:57:42;4.10;;;1.63;;
43154;SDS011;34212;51.018;13.586;2023-03-30T22:02:43;3.47;;;1.38;;
43154;SDS011;34212;51.018;13.586;2023-03-30T22:07:45;6.03;;;1.30;;
43154;SDS011;34212;51.018;13.586;2023-03-30T22:12:46;3.28;;;1.40;;
43154;SDS011;34212;51.018;13.586;2023-03-30T22:17:48;8.23;;;1.70;;
43154;SDS011;34212;51.018;13.586;2023-03-30T22:22:50;4.63;;;1.73;;
43154;SDS011;34212;51.018;13.586;2023-03-30T22:27:51;4.90;;;1.30;;
43154;SDS011;34212;51.018;13.586;2023-03-30T22:32:54;3.75;;;1.10;;
43154;SDS011;34212;51.018;13.586;2023-03-30T22:37:56;3.15;;;1.55;;
43154;SDS011;34212;51.018;13.586;2023-03-30T22:42:58;3.72;;;1.30;;
43154;SDS011;34212;51.018;13.586;2023-03-30T22:47:59;4.70;;;1.52;;
43154;SDS011;34212;51.018;13.586;2023-03-30T22:53:01;8.75;;;1.63;;
43154;SDS011;34212;51.018;13.586;2023-03-30T22:58:02;5.00;;;1.77;;
43154;SDS011;34212;51.018;13.586;2023-03-30T23:03:04;11.00;;;2.17;;
43154;SDS011;34212;51.018;13.586;2023-03-30T23:08:07;4.22;;;1.45;;
43154;SDS011;34212;51.018;13.586;2023-03-30T23:13:09;3.30;;;1.48;;
43154;SDS011;34212;51.018;13.586;2023-03-30T23:18:11;7.10;;;1.40;;
43154;SDS011;34212;51.018;13.586;2023-03-30T23:23:13;6.88;;;1.40;;
43154;SDS011;34212;51.018;13.586;2023-03-30T23:28:15;3.50;;;1.05;;
43154;SDS011;34212;51.018;13.586;2023-03-30T23:33:18;4.93;;;1.42;;
43154;SDS011;34212;51.018;13.586;2023-03-30T23:38:19;5.50;;;1.38;;
43154;SDS011;34212;51.018;13.586;2023-03-30T23:43:21;2.88;;;1.20;;
43154;SDS011;34212;51.018;13.586;2023-03-30T23:48:22;4.43;;;1.50;;
43154;SDS011;34212;51.018;13.586;2023-03-30T23:53:24;6.10;;;1.35;;
43154;SDS011;34212;51.018;13.586;2023-03-30T23:58:26;5.78;;;1.20;;
